Time;durP1;ratioP1;P1;durP2;ratioP2;P2;SDS_P1;SDS_P2;PMS_P1;PMS_P2;Temp;Humidity;BMP_temperature;BMP_pressure;BME280_temperature;BME280_humidity;BME280_pressure;Samples;Min_cycle;Max_cycle;Signal;HPM_P1;HPM_P2
2021/06/04 00:01:23;;;;;;;13.80;6.80;;;9.80;1.00;;;;;;5074164;28;20310;-73
2021/06/04 00:04:10;;;;;;;15.80;6.87;;;9.80;1.00;;;;;;5074409;28;20223;-73
2021/06/04 00:06:57;;;;;;;14.67;6.23;;;9.80;1.00;;;;;;5080120;28;20278;-73
2021/06/04 00:09:44;;;;;;;15.77;6.37;;;9.70;1.00;;;;;;5092568;28;20224;-73
2021/06/04 00:12:32;;;;;;;12.17;5.90;;;9.70;1.00;;;;;;5082991;28;20197;-73
2021/06/04 00:15:21;;;;;;;14.07;6.17;;;9.70;1.00;;;;;;5075167;28;20220;-73
2021/06/04 00:18:10;;;;;;;19.13;7.20;;;9.70;1.00;;;;;;5083563;28;20655;-73
2021/06/04 00:20:57;;;;;;;16.07;6.67;;;9.70;1.00;;;;;;5064074;28;20613;-73
2021/06/04 00:23:44;;;;;;;12.63;5.97;;;9.70;1.00;;;;;;5088074;28;20200;-73
2021/06/04 00:26:32;;;;;;;17.20;6.57;;;9.70;1.00;;;;;;5089525;28;20198;-73
2021/06/04 00:29:19;;;;;;;13.47;6.03;;;9.70;1.00;;;;;;5090764;28;20666;-73
2021/06/04 00:32:06;;;;;;;12.63;6.03;;;9.60;1.00;;;;;;5092048;28;20189;-73
2021/06/04 00:34:55;;;;;;;16.03;5.87;;;9.60;1.00;;;;;;5091847;28;20227;-73
2021/06/04 00:37:42;;;;;;;11.77;6.03;;;9.60;1.00;;;;;;5080689;28;20201;-73
2021/06/04 00:40:32;;;;;;;20.30;6.13;;;9.60;1.00;;;;;;5078088;28;20210;-73
2021/06/04 00:43:19;;;;;;;13.30;5.87;;;9.60;1.00;;;;;;5083971;28;20265;-73
2021/06/04 00:46:07;;;;;;;16.03;5.43;;;9.60;1.00;;;;;;5072761;28;20301;-73
2021/06/04 00:48:55;;;;;;;18.10;5.73;;;9.60;1.00;;;;;;5073280;28;20328;-73
2021/06/04 00:51:51;;;;;;;9.87;5.50;;;9.60;1.00;;;;;;5072398;28;20193;-73
2021/06/04 00:54:38;;;;;;;16.27;5.40;;;9.60;1.00;;;;;;5082165;28;20198;-73
2021/06/04 00:57:25;;;;;;;10.13;4.83;;;9.60;1.00;;;;;;5091261;28;20293;-73
2021/06/04 01:00:14;;;;;;;16.50;5.67;;;9.60;1.00;;;;;;5093116;28;20232;-73
2021/06/04 01:03:01;;;;;;;14.97;5.60;;;9.50;1.00;;;;;;5091703;28;20584;-73
2021/06/04 01:05:49;;;;;;;14.87;5.40;;;9.60;1.00;;;;;;5075975;28;20203;-73
2021/06/04 01:08:44;;;;;;;8.37;4.73;;;9.50;1.00;;;;;;5068108;28;20561;-73
2021/06/04 01:11:39;;;;;;;12.17;5.30;;;9.50;1.00;;;;;;5072561;28;20232;-73
2021/06/04 01:14:29;;;;;;;11.37;5.57;;;9.50;1.00;;;;;;5071658;28;20198;-73
2021/06/04 01:17:20;;;;;;;12.27;5.07;;;9.50;1.00;;;;;;5074833;28;20200;-73
2021/06/04 01:20:09;;;;;;;13.63;5.40;;;9.50;1.00;;;;;;5072273;28;20208;-73
2021/06/04 01:23:17;;;;;;;12.57;5.07;;;9.40;1.00;;;;;;5073204;28;20237;-73
2021/06/04 01:26:07;;;;;;;9.83;5.47;;;9.50;1.00;;;;;;5079560;28;20202;-73
2021/06/04 01:28:55;;;;;;;14.30;4.83;;;9.40;1.00;;;;;;5092123;28;20228;-73
2021/06/04 01:31:46;;;;;;;10.57;5.13;;;9.50;1.00;;;;;;5091872;28;20223;-73
2021/06/04 01:34:34;;;;;;;8.03;4.73;;;9.50;1.00;;;;;;5071853;28;20670;-73
2021/06/04 01:37:23;;;;;;;9.40;5.13;;;9.40;1.00;;;;;;5071859;28;20658;-73
2021/06/04 01:40:12;;;;;;;11.17;5.07;;;9.40;1.00;;;;;;5085115;28;20240;-73
2021/06/04 01:43:02;;;;;;;7.27;4.50;;;9.40;1.00;;;;;;5091295;28;20693;-73
2021/06/04 01:45:52;;;;;;;10.80;4.53;;;9.30;1.00;;;;;;5081133;28;20229;-73
2021/06/04 01:48:41;;;;;;;7.37;4.47;;;9.30;1.00;;;;;;5075553;28;20196;-73
2021/06/04 01:51:31;;;;;;;9.37;4.60;;;9.40;1.00;;;;;;5090442;28;20275;-73
2021/06/04 01:54:25;;;;;;;7.37;4.37;;;9.30;1.00;;;;;;5078833;28;20554;-73
2021/06/04 01:57:13;;;;;;;8.53;4.50;;;9.30;1.00;;;;;;5080578;28;20307;-73
2021/06/04 02:00:02;;;;;;;11.53;4.60;;;9.30;1.00;;;;;;5071862;28;20224;-73
2021/06/04 02:02:49;;;;;;;7.97;4.37;;;9.30;1.00;;;;;;5089322;28;20220;-73
2021/06/04 02:05:37;;;;;;;7.80;4.23;;;9.30;1.00;;;;;;5072898;28;20239;-73
2021/06/04 02:08:27;;;;;;;9.07;4.37;;;9.20;1.00;;;;;;5082616;28;20204;-73
2021/06/04 02:11:15;;;;;;;8.63;4.80;;;9.20;1.00;;;;;;5082462;28;20238;-73
2021/06/04 02:14:04;;;;;;;11.00;4.57;;;9.20;1.00;;;;;;5088446;28;20196;-73
2021/06/04 02:17:09;;;;;;;9.60;4.30;;;9.20;1.00;;;;;;5092735;28;20553;-73
2021/06/04 02:20:01;;;;;;;6.83;4.33;;;9.20;1.00;;;;;;5076702;28;20233;-73
2021/06/04 02:22:58;;;;;;;6.33;4.17;;;9.10;1.00;;;;;;5076455;28;20221;-73
2021/06/04 02:25:48;;;;;;;9.77;4.47;;;9.10;1.00;;;;;;5075232;28;20542;-73
2021/06/04 02:28:38;;;;;;;7.73;4.47;;;9.10;1.00;;;;;;5090839;28;20204;-73
2021/06/04 02:31:28;;;;;;;7.43;4.00;;;9.10;1.00;;;;;;5068363;28;20220;-72
2021/06/04 02:34:19;;;;;;;9.87;4.43;;;9.10;1.00;;;;;;5076233;28;20200;-72
2021/06/04 02:37:07;;;;;;;6.67;4.23;;;9.10;1.00;;;;;;5074272;28;20265;-73
2021/06/04 02:39:56;;;;;;;7.07;4.47;;;9.10;1.00;;;;;;5077050;28;20204;-72
2021/06/04 02:42:50;;;;;;;7.57;4.10;;;9.10;1.00;;;;;;5095307;28;20247;-73
2021/06/04 02:45:40;;;;;;;8.47;4.00;;;9.10;1.00;;;;;;5092680;28;20261;-72
2021/06/04 02:48:27;;;;;;;7.43;3.77;;;9.10;1.00;;;;;;5085829;28;20207;-72
2021/06/04 02:51:20;;;;;;;5.70;4.10;;;9.10;1.00;;;;;;5069419;28;20349;-72
2021/06/04 02:54:08;;;;;;;8.67;4.17;;;9.10;1.00;;;;;;5074980;28;20193;-72
2021/06/04 02:56:57;;;;;;;9.50;4.17;;;9.10;1.00;;;;;;5084250;28;20597;-73
2021/06/04 02:59:45;;;;;;;10.23;4.40;;;9.10;1.00;;;;;;5074586;28;20279;-72
2021/06/04 03:02:33;;;;;;;7.53;4.63;;;9.10;1.00;;;;;;5091571;28;20683;-72
2021/06/04 03:05:23;;;;;;;9.00;4.37;;;9.10;1.00;;;;;;5094767;28;20208;-73
2021/06/04 03:08:12;;;;;;;9.23;4.33;;;9.10;1.00;;;;;;5077610;28;20279;-73
2021/06/04 03:10:59;;;;;;;7.13;3.70;;;9.20;1.00;;;;;;5072339;28;20604;-73
2021/06/04 03:13:46;;;;;;;7.70;4.53;;;9.30;1.00;;;;;;5076290;28;20194;-72
2021/06/04 03:16:33;;;;;;;8.57;4.33;;;9.30;1.00;;;;;;5075481;28;20207;-72
2021/06/04 03:19:20;;;;;;;9.40;4.17;;;9.40;1.00;;;;;;5082788;28;20201;-72
2021/06/04 03:22:10;;;;;;;7.07;4.60;;;9.40;1.00;;;;;;5073798;28;20235;-72
2021/06/04 03:24:59;;;;;;;10.07;4.27;;;9.40;1.00;;;;;;5074393;28;20666;-72
2021/06/04 03:27:47;;;;;;;8.67;4.43;;;9.50;1.00;;;;;;5091408;28;20196;-72
2021/06/04 03:30:36;;;;;;;7.67;4.50;;;9.60;1.00;;;;;;5093670;28;20232;-72
2021/06/04 03:33:33;;;;;;;9.40;4.27;;;9.60;1.00;;;;;;5093917;28;20549;-72
2021/06/04 03:36:22;;;;;;;7.57;3.97;;;9.70;1.00;;;;;;5086446;28;20192;-72
2021/06/04 03:39:11;;;;;;;7.23;4.37;;;9.80;1.00;;;;;;5076109;28;20200;-72
2021/06/04 03:41:59;;;;;;;8.10;4.47;;;9.90;1.00;;;;;;5073747;28;20217;-73
2021/06/04 03:44:48;;;;;;;5.73;4.00;;;10.00;1.00;;;;;;5083179;28;20247;-72
2021/06/04 03:47:36;;;;;;;7.67;4.60;;;10.10;1.00;;;;;;5074838;28;20298;-73
2021/06/04 03:50:23;;;;;;;6.03;4.03;;;10.30;1.00;;;;;;5091642;28;20198;-72
2021/06/04 03:53:10;;;;;;;6.37;4.20;;;10.30;1.00;;;;;;5088046;28;20257;-73
2021/06/04 03:55:57;;;;;;;7.77;4.10;;;10.40;1.00;;;;;;5085572;28;20213;-72
2021/06/04 03:58:46;;;;;;;7.07;4.20;;;10.50;1.00;;;;;;5078918;28;20542;-72
2021/06/04 04:01:35;;;;;;;7.57;3.97;;;10.70;1.00;;;;;;5074898;28;20201;-72
2021/06/04 04:04:22;;;;;;;6.20;3.67;;;10.80;1.00;;;;;;5081977;28;20233;-72
2021/06/04 04:07:10;;;;;;;6.70;3.77;;;10.90;1.00;;;;;;5093719;28;20202;-72
2021/06/04 04:09:57;;;;;;;6.90;3.80;;;11.00;1.00;;;;;;5082839;28;20598;-73
2021/06/04 04:12:44;;;;;;;6.90;3.70;;;11.20;1.00;;;;;;5082453;28;20217;-72
2021/06/04 04:15:33;;;;;;;11.87;4.00;;;11.40;1.00;;;;;;5079366;28;20202;-72
2021/06/04 04:18:19;;;;;;;7.57;4.27;;;11.50;1.00;;;;;;5079123;28;20211;-72
2021/06/04 04:21:08;;;;;;;8.53;4.23;;;11.70;1.00;;;;;;5073348;28;20229;-73
2021/06/04 04:23:56;;;;;;;11.27;3.87;;;11.90;1.00;;;;;;5073608;28;20195;-72
2021/06/04 04:26:43;;;;;;;5.63;3.70;;;12.00;1.00;;;;;;5076203;28;20210;-72
2021/06/04 04:29:30;;;;;;;9.20;3.57;;;12.20;99.90;;;;;;5092619;28;20236;-72
2021/06/04 04:32:19;;;;;;;5.63;3.77;;;12.30;99.90;;;;;;5092946;28;20219;-73
2021/06/04 04:35:08;;;;;;;7.20;4.40;;;12.50;99.90;;;;;;5093019;28;20230;-73
2021/06/04 04:37:55;;;;;;;10.90;5.10;;;12.70;99.90;;;;;;5092353;28;20198;-72
2021/06/04 04:40:42;;;;;;;8.50;4.80;;;12.90;99.90;;;;;;5073344;28;20243;-72
2021/06/04 04:43:29;;;;;;;9.90;4.50;;;13.10;99.90;;;;;;5077617;28;20666;-72
2021/06/04 04:46:18;;;;;;;8.40;4.60;;;13.30;99.90;;;;;;5084264;28;20216;-73
2021/06/04 04:49:07;;;;;;;12.17;4.87;;;13.50;99.90;;;;;;5072511;28;20680;-72
2021/06/04 04:51:54;;;;;;;8.30;4.67;;;13.70;99.90;;;;;;5074219;28;20188;-72
2021/06/04 04:54:42;;;;;;;6.90;4.30;;;13.90;99.90;;;;;;5072379;28;20252;-72
2021/06/04 04:57:29;;;;;;;6.67;4.70;;;14.00;99.90;;;;;;5066708;28;20204;-72
2021/06/04 05:00:18;;;;;;;6.67;4.40;;;14.20;90.20;;;;;;5081900;28;20653;-72
2021/06/04 05:03:05;;;;;;;9.80;4.33;;;14.30;1.00;;;;;;5091532;28;20214;-72
2021/06/04 05:05:54;;;;;;;8.13;4.70;;;14.50;1.00;;;;;;5091820;28;20249;-72
2021/06/04 05:08:41;;;;;;;7.87;4.70;;;14.70;1.00;;;;;;5092705;28;20203;-72
2021/06/04 05:11:28;;;;;;;9.07;4.80;;;14.90;1.00;;;;;;5066576;28;20202;-72
2021/06/04 05:14:15;;;;;;;6.93;4.67;;;15.00;1.00;;;;;;5087194;28;20229;-72
2021/06/04 05:17:03;;;;;;;11.00;4.63;;;15.10;99.90;;;;;;5067468;28;20208;-72
2021/06/04 05:19:50;;;;;;;6.27;4.20;;;15.30;1.00;;;;;;5083425;28;20199;-72
2021/06/04 05:22:39;;;;;;;7.60;4.70;;;15.40;99.90;;;;;;5068447;28;20591;-72
2021/06/04 05:25:27;;;;;;;6.30;4.40;;;15.60;99.90;;;;;;5073159;28;20199;-73
2021/06/04 05:28:15;;;;;;;10.47;4.70;;;15.70;1.00;;;;;;5091834;28;20218;-72
2021/06/04 05:31:05;;;;;;;11.93;4.57;;;15.90;1.00;;;;;;5091133;28;20199;-72
2021/06/04 05:33:53;;;;;;;9.00;4.10;;;16.10;99.90;;;;;;5066856;28;20203;-72
2021/06/04 05:36:40;;;;;;;13.43;4.53;;;16.30;1.00;;;;;;5090630;28;20577;-72
2021/06/04 05:39:31;;;;;;;7.57;4.40;;;16.50;1.00;;;;;;5078814;28;20195;-72
2021/06/04 05:42:19;;;;;;;6.37;4.43;;;16.60;99.90;;;;;;5066767;28;20242;-72
2021/06/04 05:45:07;;;;;;;6.13;3.80;;;16.70;97.40;;;;;;5082402;28;20203;-72
2021/06/04 05:47:54;;;;;;;7.10;4.50;;;16.90;1.00;;;;;;5085164;28;20256;-72
2021/06/04 05:50:43;;;;;;;8.70;4.40;;;17.00;99.90;;;;;;5090895;28;20202;-72
2021/06/04 05:53:32;;;;;;;5.93;4.13;;;17.20;1.00;;;;;;5084981;28;20525;-72
2021/06/04 05:56:28;;;;;;;10.10;4.20;;;17.30;99.90;;;;;;5081082;28;20285;-72
2021/06/04 05:59:16;;;;;;;6.37;3.80;;;17.40;99.90;;;;;;5088494;28;20574;-72
2021/06/04 06:02:04;;;;;;;8.70;4.17;;;17.60;99.90;;;;;;5091877;28;20302;-72
2021/06/04 06:04:51;;;;;;;7.83;3.90;;;17.70;1.00;;;;;;5074482;28;20196;-73
2021/06/04 06:07:38;;;;;;;7.10;4.00;;;17.90;1.00;;;;;;5086336;28;20195;-72
2021/06/04 06:10:26;;;;;;;8.17;3.63;;;17.90;1.00;;;;;;5091072;28;20193;-72
2021/06/04 06:13:14;;;;;;;6.07;3.93;;;18.10;1.00;;;;;;5084745;28;20205;-72
2021/06/04 06:16:01;;;;;;;10.47;3.87;;;18.20;99.90;;;;;;5078613;28;20250;-72
2021/06/04 06:18:48;;;;;;;10.73;4.00;;;18.40;99.90;;;;;;5090998;28;20202;-76
2021/06/04 06:21:36;;;;;;;9.23;4.10;;;18.50;99.90;;;;;;5091694;28;20234;-74
2021/06/04 06:24:23;;;;;;;6.23;3.70;;;18.60;15.50;;;;;;5091666;28;20193;-76
2021/06/04 06:27:10;;;;;;;8.53;3.93;;;18.80;1.00;;;;;;5086169;28;20202;-76
2021/06/04 06:29:59;;;;;;;7.97;3.97;;;18.80;1.00;;;;;;5072036;28;20204;-76
2021/06/04 06:32:46;;;;;;;7.67;3.93;;;19.00;1.00;;;;;;5071907;28;20193;-76
2021/06/04 06:35:34;;;;;;;5.60;3.73;;;19.20;1.00;;;;;;5071518;28;20203;-73
2021/06/04 06:38:22;;;;;;;10.13;4.20;;;19.30;1.00;;;;;;5071621;28;20265;-75
2021/06/04 06:41:11;;;;;;;7.63;3.73;;;19.40;1.00;;;;;;5079715;28;20634;-75
2021/06/04 06:43:58;;;;;;;9.77;3.57;;;19.50;1.00;;;;;;5071959;28;20274;-75
2021/06/04 06:46:51;;;;;;;7.63;4.13;;;19.70;99.90;;;;;;5071778;28;20227;-73
2021/06/04 06:49:38;;;;;;;9.20;4.17;;;19.80;99.90;;;;;;5070722;28;20207;-75
2021/06/04 06:52:25;;;;;;;8.73;3.63;;;19.90;99.90;;;;;;5071643;28;20195;-75
2021/06/04 06:55:13;;;;;;;5.47;3.03;;;20.10;99.90;;;;;;5076146;28;20217;-76
2021/06/04 06:58:00;;;;;;;8.80;3.40;;;20.30;99.90;;;;;;5085258;28;20206;-75
2021/06/04 07:00:48;;;;;;;7.90;3.23;;;20.40;1.00;;;;;;5068876;28;20202;-75
2021/06/04 07:03:38;;;;;;;5.90;3.30;;;20.50;1.00;;;;;;5074114;28;20549;-75
2021/06/04 07:06:26;;;;;;;8.57;3.10;;;20.70;1.00;;;;;;5069400;28;20202;-76
2021/06/04 07:09:14;;;;;;;7.63;3.50;;;20.80;1.00;;;;;;5064581;28;20224;-74
2021/06/04 07:12:01;;;;;;;8.77;3.23;;;20.80;1.00;;;;;;5076168;28;20219;-74
2021/06/04 07:14:48;;;;;;;4.37;3.23;;;21.00;1.00;;;;;;5083403;28;20204;-73
2021/06/04 07:17:35;;;;;;;7.47;3.27;;;21.10;1.00;;;;;;5089496;28;20231;-75
2021/06/04 07:20:24;;;;;;;6.20;3.20;;;21.40;1.00;;;;;;5094582;28;20242;-76
2021/06/04 07:23:11;;;;;;;9.20;3.53;;;21.40;1.00;;;;;;5073352;28;20270;-76
2021/06/04 07:25:59;;;;;;;6.40;3.23;;;21.50;1.00;;;;;;5079420;28;20283;-74
2021/06/04 07:28:48;;;;;;;7.37;3.23;;;21.60;1.00;;;;;;5082518;28;20631;-74
2021/06/04 07:31:35;;;;;;;3.93;2.73;;;21.70;1.00;;;;;;5072440;28;20200;-75
2021/06/04 07:34:23;;;;;;;7.07;3.50;;;21.80;1.00;;;;;;5094685;28;20715;-74
2021/06/04 07:37:13;;;;;;;6.27;3.20;;;22.00;1.00;;;;;;5094833;28;20285;-74
2021/06/04 07:40:00;;;;;;;4.73;3.07;;;22.10;1.00;;;;;;5094084;28;20657;-75
2021/06/04 07:42:47;;;;;;;6.37;3.13;;;22.10;1.00;;;;;;5093716;28;20216;-72
2021/06/04 07:45:34;;;;;;;8.43;3.00;;;22.10;1.00;;;;;;5067779;28;20234;-74
2021/06/04 07:48:21;;;;;;;6.03;3.07;;;22.10;1.00;;;;;;5074368;28;20212;-74
2021/06/04 07:51:10;;;;;;;10.70;2.83;;;22.40;1.00;;;;;;5069727;28;20640;-74
2021/06/04 07:53:59;;;;;;;10.70;2.83;;;22.70;1.00;;;;;;5077693;28;20803;-74
2021/06/04 07:56:46;;;;;;;6.30;3.00;;;22.90;1.00;;;;;;5077250;28;20189;-74
2021/06/04 07:59:33;;;;;;;5.47;3.10;;;23.00;1.00;;;;;;5066313;28;20204;-75
2021/06/04 08:02:20;;;;;;;5.77;3.40;;;22.90;1.00;;;;;;5072055;28;20212;-75
2021/06/04 08:05:08;;;;;;;7.43;2.80;;;23.10;1.00;;;;;;5073541;28;20204;-74
2021/06/04 08:07:55;;;;;;;7.57;2.43;;;23.20;1.00;;;;;;5072934;28;20201;-75
2021/06/04 08:10:44;;;;;;;4.63;2.37;;;23.30;1.00;;;;;;5073172;28;20192;-75
2021/06/04 08:13:31;;;;;;;4.97;2.20;;;23.40;1.00;;;;;;5088070;28;20192;-76
2021/06/04 08:16:18;;;;;;;6.07;2.47;;;23.60;1.00;;;;;;5093632;28;20550;-73
2021/06/04 08:19:07;;;;;;;4.93;2.50;;;23.70;1.00;;;;;;5086531;28;20632;-75
2021/06/04 08:22:03;;;;;;;5.13;2.30;;;23.80;1.00;;;;;;5073220;28;20228;-76
2021/06/04 08:24:50;;;;;;;5.90;2.30;;;23.80;1.00;;;;;;5074115;28;20283;-75
2021/06/04 08:27:39;;;;;;;5.07;2.57;;;23.90;1.00;;;;;;5090274;28;20282;-75
2021/06/04 08:30:26;;;;;;;7.20;2.63;;;23.90;1.00;;;;;;5092315;28;20234;-75
2021/06/04 08:33:18;;;;;;;10.50;2.83;;;24.20;1.00;;;;;;5091494;28;20210;-75
2021/06/04 08:36:06;;;;;;;3.93;2.20;;;24.30;1.00;;;;;;5093335;28;20217;-75
2021/06/04 08:38:56;;;;;;;5.07;2.40;;;24.60;1.00;;;;;;5069397;28;20196;-75
2021/06/04 08:41:45;;;;;;;9.60;2.60;;;24.50;1.00;;;;;;5081859;28;20567;-74
2021/06/04 08:44:41;;;;;;;5.37;2.30;;;24.60;1.00;;;;;;5066468;28;20268;-75
2021/06/04 08:47:31;;;;;;;6.13;2.90;;;24.70;1.00;;;;;;5083342;28;20212;-75
2021/06/04 08:50:25;;;;;;;4.83;2.30;;;24.80;1.00;;;;;;5091717;28;20199;-75
2021/06/04 08:53:19;;;;;;;3.17;2.20;;;24.90;1.00;;;;;;5074281;28;20233;-75
2021/06/04 08:56:07;;;;;;;3.93;2.50;;;25.10;1.00;;;;;;5074603;28;20231;-76
2021/06/04 08:58:56;;;;;;;3.97;2.20;;;25.20;1.00;;;;;;5072785;28;20192;-75
2021/06/04 09:01:47;;;;;;;4.13;2.33;;;25.40;1.00;;;;;;5071482;28;20211;-75
2021/06/04 09:04:36;;;;;;;3.40;2.27;;;25.60;1.00;;;;;;5081555;28;20193;-76
2021/06/04 09:07:25;;;;;;;4.18;2.72;;;25.70;1.00;;;;;;5069442;28;20548;-76
2021/06/04 09:10:14;;;;;;;6.68;2.53;;;25.80;99.90;;;;;;5073923;28;20200;-75
2021/06/04 09:13:04;;;;;;;6.45;2.35;;;25.90;99.90;;;;;;5085168;28;20218;-75
2021/06/04 09:15:54;;;;;;;5.65;2.55;;;26.00;99.90;;;;;;5092091;28;20658;-75
2021/06/04 09:18:51;;;;;;;4.93;2.50;;;26.00;99.90;;;;;;5089069;28;20204;-75
2021/06/04 09:21:41;;;;;;;5.32;2.85;;;26.40;99.90;;;;;;5070376;28;20237;-74
2021/06/04 09:24:31;;;;;;;6.05;2.70;;;26.20;99.90;;;;;;5088710;28;20256;-74
2021/06/04 09:27:30;;;;;;;4.03;2.47;;;26.20;99.90;;;;;;5086292;28;20203;-74
2021/06/04 09:30:21;;;;;;;5.68;2.70;;;26.00;99.90;;;;;;5072886;28;20282;-75
2021/06/04 09:33:11;;;;;;;6.55;2.80;;;26.00;99.90;;;;;;5071831;28;20196;-75
2021/06/04 09:36:07;;;;;;;5.25;2.72;;;26.30;99.90;;;;;;5076382;28;20819;-75
2021/06/04 09:38:55;;;;;;;5.80;2.55;;;26.40;99.90;;;;;;5092053;28;20196;-75
2021/06/04 09:41:43;;;;;;;5.70;2.90;;;26.40;99.90;;;;;;5091171;28;20199;-75
2021/06/04 09:44:31;;;;;;;6.05;2.55;;;26.50;99.90;;;;;;5073724;28;20197;-75
2021/06/04 09:47:27;;;;;;;4.72;2.53;;;26.30;99.90;;;;;;5063258;28;20216;-75
2021/06/04 09:50:18;;;;;;;3.67;2.30;;;26.60;99.90;;;;;;5080946;28;20283;-75
2021/06/04 09:53:09;;;;;;;4.57;2.63;;;26.80;99.90;;;;;;5069129;28;20188;-75
2021/06/04 09:56:24;;;;;;;6.85;2.40;;;26.70;99.90;;;;;;5090504;28;20196;-76
2021/06/04 09:59:12;;;;;;;4.40;2.55;;;26.60;99.90;;;;;;5082809;28;20666;-74
2021/06/04 10:02:00;;;;;;;3.83;2.72;;;26.60;99.90;;;;;;5072772;28;20230;-76
2021/06/04 10:04:47;;;;;;;10.63;2.90;;;26.30;99.90;;;;;;5072882;28;20201;-76
2021/06/04 10:07:34;;;;;;;4.20;2.60;;;26.40;99.90;;;;;;5071230;28;20605;-76
2021/06/04 10:10:25;;;;;;;3.90;2.42;;;26.70;99.90;;;;;;5072655;28;20207;-75
2021/06/04 10:13:12;;;;;;;4.80;2.55;;;27.00;99.90;;;;;;5072984;28;20207;-76
2021/06/04 10:16:02;;;;;;;6.93;3.15;;;27.40;99.90;;;;;;5089858;28;20861;-74
2021/06/04 10:18:49;;;;;;;4.30;2.53;;;27.80;99.90;;;;;;5088633;28;20342;-75
2021/06/04 10:21:36;;;;;;;5.80;2.33;;;27.80;99.90;;;;;;5071880;28;20235;-75
2021/06/04 10:24:29;;;;;;;6.28;2.40;;;28.00;99.90;;;;;;5086157;28;20193;-76
2021/06/04 10:27:32;;;;;;;6.97;2.75;;;28.00;99.90;;;;;;5082743;28;20282;-76
2021/06/04 10:30:21;;;;;;;5.47;2.53;;;28.30;99.90;;;;;;5076786;28;20218;-76
2021/06/04 10:33:12;;;;;;;7.57;3.30;;;28.20;99.90;;;;;;5090706;28;20203;-76
2021/06/04 10:36:00;;;;;;;7.85;3.60;;;28.50;99.90;;;;;;5074743;28;20219;-74
2021/06/04 10:38:51;;;;;;;4.32;2.88;;;28.70;99.90;;;;;;5084488;28;20252;-73
2021/06/04 10:41:44;;;;;;;5.15;2.80;;;28.50;99.90;;;;;;5069862;28;20543;-76
2021/06/04 10:44:36;;;;;;;5.05;3.25;;;28.20;99.90;;;;;;5075003;28;20682;-75
2021/06/04 10:47:27;;;;;;;7.95;2.83;;;28.00;99.90;;;;;;5080379;28;20255;-75
2021/06/04 10:50:16;;;;;;;5.78;3.08;;;27.80;99.90;;;;;;5076307;28;20208;-75
2021/06/04 10:53:06;;;;;;;5.22;2.40;;;27.80;99.90;;;;;;5089652;28;20197;-75
2021/06/04 10:55:59;;;;;;;6.90;2.58;;;28.20;99.90;;;;;;5075647;28;20192;-74
2021/06/04 10:58:48;;;;;;;6.63;2.80;;;28.70;99.90;;;;;;5094063;28;20206;-75
2021/06/04 11:01:38;;;;;;;5.72;3.10;;;28.90;99.90;;;;;;5089299;28;20204;-74
2021/06/04 11:04:30;;;;;;;6.38;3.30;;;29.20;99.90;;;;;;5074416;28;20220;-75
2021/06/04 11:07:19;;;;;;;5.95;2.88;;;28.80;99.90;;;;;;5074723;28;20609;-75
2021/06/04 11:10:10;;;;;;;5.45;3.20;;;29.10;99.90;;;;;;5074801;28;20193;-75
2021/06/04 11:13:05;;;;;;;8.85;2.80;;;29.10;99.90;;;;;;5075558;28;20264;-74
2021/06/04 11:15:55;;;;;;;5.28;2.42;;;29.40;99.90;;;;;;5074901;28;20200;-75
2021/06/04 11:18:46;;;;;;;4.22;2.55;;;29.70;99.90;;;;;;5066835;28;20212;-74
2021/06/04 11:21:35;;;;;;;6.82;2.50;;;29.90;99.90;;;;;;5074621;28;20589;-75
2021/06/04 11:24:27;;;;;;;6.35;2.60;;;29.60;99.90;;;;;;5077197;28;20215;-75
2021/06/04 11:27:18;;;;;;;7.82;3.03;;;29.50;99.90;;;;;;5084423;28;20279;-74
2021/06/04 11:30:07;;;;;;;4.88;2.58;;;29.40;99.90;;;;;;5094054;28;20211;-75
2021/06/04 11:32:59;;;;;;;5.15;2.53;;;29.20;99.90;;;;;;5070357;28;20200;-75
2021/06/04 11:35:50;;;;;;;4.47;2.60;;;29.50;99.90;;;;;;5073282;28;20205;-75
2021/06/04 11:38:39;;;;;;;6.95;2.70;;;30.10;99.90;;;;;;5080697;28;20211;-76
2021/06/04 11:41:29;;;;;;;8.90;2.92;;;29.90;99.90;;;;;;5093200;28;20230;-76
2021/06/04 11:44:20;;;;;;;4.13;2.90;;;29.80;99.90;;;;;;5092810;28;20235;-74
2021/06/04 11:47:27;;;;;;;3.95;2.83;;;29.10;99.90;;;;;;5068988;28;20226;-74
2021/06/04 11:50:30;;;;;;;8.98;2.85;;;29.10;99.90;;;;;;5084381;28;20634;-74
2021/06/04 11:53:35;;;;;;;8.50;2.80;;;29.40;99.90;;;;;;5083142;28;20588;-73
2021/06/04 11:56:41;;;;;;;7.20;2.70;;;29.50;99.90;;;;;;5069888;28;20201;-76
2021/06/04 12:00:04;;;;;;;9.68;2.83;;;29.40;99.90;;;;;;5066636;28;20569;-76
2021/06/04 12:02:51;;;;;;;11.00;2.70;;;29.50;99.90;;;;;;5011680;28;20253;-74
2021/06/04 12:05:39;;;;;;;5.78;2.67;;;29.80;99.90;;;;;;5011129;28;20602;-75
2021/06/04 12:08:45;;;;;;;8.80;2.90;;;29.70;99.90;;;;;;4988923;28;20203;-74
2021/06/04 12:11:33;;;;;;;10.35;2.55;;;29.60;99.90;;;;;;4992165;28;20203;-75
2021/06/04 12:14:21;;;;;;;6.43;2.60;;;29.40;99.90;;;;;;5006529;28;20209;-75
2021/06/04 12:17:26;;;;;;;3.65;2.50;;;29.10;99.90;;;;;;5008925;28;20833;-75
2021/06/04 12:20:22;;;;;;;6.50;3.00;;;29.70;99.90;;;;;;4997563;28;20670;-74
2021/06/04 12:23:09;;;;;;;6.65;2.90;;;30.30;99.90;;;;;;5009522;28;20233;-75
2021/06/04 12:26:00;;;;;;;8.93;2.67;;;30.40;99.90;;;;;;5011166;28;20195;-74
2021/06/04 12:28:47;;;;;;;7.30;2.88;;;30.50;99.90;;;;;;4981897;28;20203;-74
2021/06/04 12:31:44;;;;;;;5.00;2.60;;;30.80;99.90;;;;;;4992634;28;20383;-75
2021/06/04 12:34:53;;;;;;;3.75;2.60;;;30.60;99.90;;;;;;5071758;28;20633;-74
2021/06/04 12:37:41;;;;;;;7.93;2.80;;;30.50;99.90;;;;;;5072446;28;20203;-74
2021/06/04 12:40:29;;;;;;;4.40;2.50;;;30.60;99.90;;;;;;5072276;28;20200;-75
2021/06/04 12:43:19;;;;;;;4.47;2.50;;;30.50;99.90;;;;;;5073029;28;20213;-74
2021/06/04 12:46:14;;;;;;;5.25;2.80;;;30.70;99.90;;;;;;5074691;28;20216;-74
2021/06/04 12:49:06;;;;;;;5.00;2.83;;;30.20;99.90;;;;;;5091466;28;20196;-74
2021/06/04 12:51:53;;;;;;;5.07;2.80;;;30.40;99.90;;;;;;5074693;28;20200;-73
2021/06/04 12:54:40;;;;;;;8.63;3.10;;;30.80;99.90;;;;;;5073490;28;20656;-76
2021/06/04 12:57:27;;;;;;;4.97;2.67;;;30.60;99.90;;;;;;5072643;28;20254;-75
2021/06/04 13:00:22;;;;;;;7.10;2.78;;;30.60;99.90;;;;;;5072327;28;20258;-76
2021/06/04 13:03:10;;;;;;;4.53;2.80;;;30.60;99.90;;;;;;5090704;28;20880;-75
2021/06/04 13:06:00;;;;;;;3.95;2.78;;;31.00;99.90;;;;;;5071476;28;20234;-76
2021/06/04 13:08:48;;;;;;;6.80;2.47;;;30.70;99.90;;;;;;5083882;28;20204;-74
2021/06/04 13:11:38;;;;;;;2.97;2.42;;;29.90;99.90;;;;;;5092462;28;20195;-74
2021/06/04 13:14:29;;;;;;;6.00;2.22;;;29.50;99.90;;;;;;5090650;28;20201;-74
2021/06/04 13:17:26;;;;;;;4.93;2.65;;;29.50;99.90;;;;;;5090758;28;20254;-73
2021/06/04 13:20:15;;;;;;;6.90;2.58;;;29.50;99.90;;;;;;5077932;28;20205;-74
2021/06/04 13:23:10;;;;;;;4.72;2.40;;;30.10;99.90;;;;;;5079058;28;20254;-74
2021/06/04 13:26:08;;;;;;;4.95;2.25;;;30.80;99.90;;;;;;5089274;28;20196;-73
2021/06/04 13:28:56;;;;;;;5.00;2.42;;;31.00;99.90;;;;;;5074477;28;20728;-74
2021/06/04 13:31:43;;;;;;;7.60;2.63;;;31.10;99.90;;;;;;5092802;28;20677;-74
2021/06/04 13:34:49;;;;;;;5.28;2.25;;;31.20;99.90;;;;;;5091020;28;20192;-74
2021/06/04 13:37:37;;;;;;;4.90;2.50;;;31.20;99.90;;;;;;5078067;28;20227;-73
2021/06/04 13:40:24;;;;;;;5.90;2.60;;;30.80;99.90;;;;;;5074515;28;20203;-75
2021/06/04 13:43:17;;;;;;;4.32;2.53;;;30.50;99.90;;;;;;5072656;28;20678;-75
2021/06/04 13:46:04;;;;;;;3.15;2.20;;;30.40;99.90;;;;;;5068215;28;20212;-75
2021/06/04 13:49:06;;;;;;;3.08;2.40;;;30.90;99.90;;;;;;5079902;28;20278;-73
2021/06/04 13:51:56;;;;;;;3.70;2.13;;;31.30;99.90;;;;;;5069811;28;20204;-74
2021/06/04 13:54:52;;;;;;;4.95;2.50;;;31.40;99.90;;;;;;5072769;28;20197;-74
2021/06/04 13:57:39;;;;;;;2.53;2.13;;;32.00;99.90;;;;;;5073873;28;20196;-73
2021/06/04 14:00:28;;;;;;;5.03;2.55;;;31.80;99.90;;;;;;5072661;28;20215;-75
2021/06/04 14:03:17;;;;;;;4.22;2.85;;;31.60;99.90;;;;;;5070411;28;20730;-73
2021/06/04 14:06:06;;;;;;;2.65;2.40;;;30.60;99.90;;;;;;5090764;28;20191;-74
2021/06/04 14:09:04;;;;;;;5.00;2.45;;;30.30;99.90;;;;;;5070029;28;20200;-73
2021/06/04 14:11:52;;;;;;;5.38;2.95;;;30.20;99.90;;;;;;5072306;28;20196;-73
2021/06/04 14:14:41;;;;;;;3.92;2.70;;;30.50;99.90;;;;;;5073789;28;20192;-74
2021/06/04 14:17:36;;;;;;;5.50;2.92;;;30.70;99.90;;;;;;5095698;28;20196;-73
2021/06/04 14:20:34;;;;;;;7.45;2.90;;;31.30;99.90;;;;;;5094373;28;20699;-74
2021/06/04 14:23:23;;;;;;;2.38;2.00;;;31.10;99.90;;;;;;5094911;28;20259;-74
2021/06/04 14:26:25;;;;;;;7.03;2.42;;;31.00;99.90;;;;;;5070161;28;20200;-73
2021/06/04 14:29:14;;;;;;;4.88;2.70;;;31.00;99.90;;;;;;5081227;28;20207;-74
2021/06/04 14:32:11;;;;;;;4.25;2.60;;;30.70;99.90;;;;;;5082677;28;20192;-75
2021/06/04 14:35:19;;;;;;;4.75;2.70;;;30.40;99.90;;;;;;5077217;28;20636;-75
2021/06/04 14:38:22;;;;;;;3.90;2.67;;;29.90;99.90;;;;;;5080931;28;20198;-76
2021/06/04 14:41:10;;;;;;;3.60;2.60;;;29.20;99.90;;;;;;5094125;28;20206;-76
2021/06/04 14:44:01;;;;;;;5.07;2.75;;;28.70;99.90;;;;;;5083249;28;20220;-76
2021/06/04 14:46:49;;;;;;;4.95;2.33;;;28.40;99.90;;;;;;5075507;28;20222;-76
2021/06/04 14:49:36;;;;;;;5.20;2.50;;;28.10;99.90;;;;;;5077207;28;20205;-75
2021/06/04 14:52:25;;;;;;;5.07;2.50;;;27.80;99.90;;;;;;5075480;28;20257;-75